Time;durP1;ratioP1;P1;durP2;ratioP2;P2;SDS_P1;SDS_P2;PMS_P1;PMS_P2;Temp;Humidity;BMP_temperature;BMP_pressure;BME280_temperature;BME280_humidity;BME280_pressure;Samples;Min_cycle;Max_cycle;Signal;HPM_P1;HPM_P2
2022/04/05 00:00:13;;;;;;;15.07;7.43;;;4.50;49.80;;;;;;5070988;28;20003;-71
2022/04/05 00:02:40;;;;;;;15.07;7.32;;;4.50;50.00;;;;;;5071771;28;20028;-72
2022/04/05 00:05:07;;;;;;;12.13;6.30;;;4.50;50.20;;;;;;5071168;28;20036;-72
2022/04/05 00:07:33;;;;;;;14.35;6.55;;;4.50;49.80;;;;;;5071542;28;20066;-72
2022/04/05 00:10:00;;;;;;;13.75;6.28;;;4.50;50.30;;;;;;5054631;28;20120;-72
2022/04/05 00:12:27;;;;;;;10.60;5.57;;;4.50;50.70;;;;;;5071183;28;20063;-71
2022/04/05 00:14:53;;;;;;;12.77;7.00;;;4.40;50.10;;;;;;5072512;28;20033;-71
2022/04/05 00:17:19;;;;;;;13.73;7.35;;;4.40;50.20;;;;;;5070940;28;20119;-71
2022/04/05 00:19:45;;;;;;;14.43;6.35;;;4.50;50.70;;;;;;5071359;28;20120;-71
2022/04/05 00:22:12;;;;;;;13.38;7.30;;;4.50;50.80;;;;;;5070875;28;20127;-72
2022/04/05 00:24:38;;;;;;;15.27;6.25;;;4.50;50.70;;;;;;5071164;28;20037;-71
2022/04/05 00:27:04;;;;;;;15.00;6.40;;;4.50;50.60;;;;;;5070770;28;20123;-71
2022/04/05 00:29:30;;;;;;;13.82;6.28;;;4.50;50.70;;;;;;5072433;28;20052;-71
2022/04/05 00:31:56;;;;;;;11.18;5.68;;;4.50;50.60;;;;;;5070765;28;20040;-72
2022/04/05 00:34:25;;;;;;;13.13;5.95;;;4.50;51.00;;;;;;5071180;28;20109;-71
2022/04/05 00:36:53;;;;;;;12.88;6.68;;;4.50;50.30;;;;;;5071740;28;20036;-71
2022/04/05 00:39:20;;;;;;;11.73;6.65;;;4.50;50.90;;;;;;5054275;28;20083;-72
2022/04/05 00:42:09;;;;;;;11.10;5.72;;;4.50;50.90;;;;;;5070695;28;20436;-71
2022/04/05 00:44:36;;;;;;;10.65;4.93;;;4.50;51.10;;;;;;5071282;28;20036;-71
2022/04/05 00:47:33;;;;;;;10.35;5.25;;;4.50;50.60;;;;;;5070360;28;20485;-71
2022/04/05 00:50:00;;;;;;;12.25;5.88;;;4.50;51.50;;;;;;5072133;28;20036;-72
2022/04/05 00:52:27;;;;;;;10.20;4.90;;;4.50;50.60;;;;;;5070615;28;20032;-72
2022/04/05 00:54:55;;;;;;;9.57;4.47;;;4.50;50.70;;;;;;5070878;28;20111;-72
2022/04/05 00:57:23;;;;;;;12.38;5.43;;;4.50;51.10;;;;;;5070629;28;20040;-72
2022/04/05 01:00:09;;;;;;;9.40;4.80;;;4.50;51.20;;;;;;5054194;28;20040;-71
2022/04/05 01:02:39;;;;;;;10.02;5.20;;;4.50;51.50;;;;;;5071173;28;20036;-72
2022/04/05 01:05:07;;;;;;;9.27;4.75;;;4.50;51.30;;;;;;5071857;28;20044;-71
2022/04/05 01:07:35;;;;;;;8.20;4.15;;;4.40;51.50;;;;;;5072370;28;20062;-71
2022/04/05 01:10:05;;;;;;;11.57;4.53;;;4.40;51.70;;;;;;5070792;28;20100;-71
2022/04/05 01:12:31;;;;;;;11.32;4.85;;;4.40;51.70;;;;;;5070866;28;20039;-71
2022/04/05 01:14:59;;;;;;;12.30;4.65;;;4.40;51.80;;;;;;5071850;28;20068;-71
2022/04/05 01:17:26;;;;;;;8.45;4.30;;;4.30;51.80;;;;;;5070511;28;20075;-72
2022/04/05 01:19:53;;;;;;;11.98;4.93;;;4.20;51.90;;;;;;5070775;28;20397;-71
2022/04/05 01:22:19;;;;;;;12.18;5.57;;;4.10;52.40;;;;;;5070374;28;20051;-71
2022/04/05 01:24:45;;;;;;;9.98;4.88;;;4.00;52.50;;;;;;5070739;28;20107;-71
2022/04/05 01:29:56;;;;;;;23.38;10.85;;;3.90;52.50;;;;;;5072807;28;20047;-71
2022/04/05 01:32:22;;;;;;;16.65;9.45;;;3.90;52.50;;;;;;5073971;28;20039;-71
2022/04/05 01:34:48;;;;;;;22.85;13.27;;;3.90;52.50;;;;;;5074251;28;20032;-71
2022/04/05 01:37:14;;;;;;;30.10;15.65;;;3.90;52.40;;;;;;5073724;28;20413;-71
2022/04/05 01:39:42;;;;;;;13.88;7.45;;;3.90;52.50;;;;;;5074091;28;20466;-71
2022/04/05 01:42:12;;;;;;;18.13;8.00;;;3.80;51.80;;;;;;5075051;28;20041;-71
2022/04/05 01:44:39;;;;;;;15.32;7.25;;;3.80;52.50;;;;;;5075185;28;20036;-71
2022/04/05 01:47:27;;;;;;;12.95;6.88;;;3.80;52.00;;;;;;5090398;28;20039;-71
2022/04/05 01:49:53;;;;;;;12.25;6.28;;;3.80;52.70;;;;;;5073874;28;20032;-72
2022/04/05 01:52:20;;;;;;;18.60;8.15;;;3.80;52.50;;;;;;5074973;28;20036;-71
2022/04/05 01:54:46;;;;;;;17.77;9.38;;;3.70;52.10;;;;;;5073845;28;20465;-71
2022/04/05 01:57:13;;;;;;;19.95;9.30;;;3.70;52.30;;;;;;5073345;28;20086;-71
2022/04/05 01:59:41;;;;;;;16.08;7.30;;;3.60;52.70;;;;;;5056918;28;20119;-71
2022/04/05 02:02:10;;;;;;;14.80;6.63;;;3.60;52.80;;;;;;5073317;28;20401;-71
2022/04/05 02:04:37;;;;;;;14.48;6.07;;;3.60;52.90;;;;;;5056910;28;20032;-71
2022/04/05 02:07:21;;;;;;;11.10;6.03;;;3.50;53.00;;;;;;5073286;28;20083;-71
2022/04/05 02:09:49;;;;;;;12.30;6.03;;;3.50;53.40;;;;;;5073565;28;20493;-71
2022/04/05 02:12:16;;;;;;;11.18;4.75;;;3.50;53.00;;;;;;5056406;28;20089;-71
2022/04/05 02:14:43;;;;;;;13.45;5.05;;;3.50;52.90;;;;;;5073464;28;20025;-72
2022/04/05 02:17:11;;;;;;;10.43;5.45;;;3.50;52.60;;;;;;5072602;28;20115;-72
2022/04/05 02:19:40;;;;;;;9.93;5.10;;;3.40;53.10;;;;;;5035631;28;20128;-71
2022/04/05 02:22:06;;;;;;;13.93;5.72;;;3.40;53.20;;;;;;5049768;28;20577;-71
2022/04/05 02:24:33;;;;;;;9.52;5.05;;;3.40;53.20;;;;;;5051497;28;20116;-71
2022/04/05 02:26:59;;;;;;;;;;;3.30;52.70;;;;;;5050779;28;20124;-71
2022/04/05 02:29:25;;;;;;;9.57;4.88;;;3.20;52.20;;;;;;5051015;28;19929;-71
2022/04/05 02:31:51;;;;;;;9.45;4.65;;;3.20;53.10;;;;;;5054302;28;20032;-71
2022/04/05 02:34:17;;;;;;;12.32;5.13;;;3.20;53.30;;;;;;5070827;28;20521;-71
2022/04/05 02:36:43;;;;;;;10.88;4.97;;;3.20;53.50;;;;;;5071541;28;20050;-71
2022/04/05 02:39:11;;;;;;;10.38;5.78;;;3.10;53.60;;;;;;5071832;28;20041;-71
2022/04/05 02:41:37;;;;;;;10.38;5.20;;;3.10;54.00;;;;;;5069923;28;20032;-71
2022/04/05 02:44:03;;;;;;;;;;;3.00;53.80;;;;;;5073150;28;20035;-71
2022/04/05 02:46:30;;;;;;;9.48;4.50;;;3.00;52.80;;;;;;5055446;28;20317;-71
2022/04/05 02:48:56;;;;;;;9.93;5.25;;;3.00;53.60;;;;;;5044921;28;20517;-71
2022/04/05 02:51:23;;;;;;;;;;;3.00;54.50;;;;;;5044939;28;20558;-71
2022/04/05 02:53:49;;;;;;;9.40;4.28;;;3.00;53.10;;;;;;5044597;28;20372;-71
2022/04/05 02:56:15;;;;;;;11.30;5.45;;;3.00;53.40;;;;;;5072121;28;20037;-71
2022/04/05 02:58:43;;;;;;;9.15;4.53;;;3.00;54.60;;;;;;5072605;28;20036;-71
2022/04/05 03:01:10;;;;;;;7.38;4.13;;;2.90;54.10;;;;;;5072137;28;20374;-71
2022/04/05 03:03:36;;;;;;;10.32;5.18;;;2.90;53.80;;;;;;5048307;28;20127;-71
2022/04/05 03:06:02;;;;;;;11.85;5.38;;;2.90;54.50;;;;;;5073359;28;20033;-71
2022/04/05 03:08:29;;;;;;;10.98;5.20;;;2.90;54.50;;;;;;5088940;28;20060;-71
2022/04/05 03:10:55;;;;;;;12.15;5.45;;;2.90;54.50;;;;;;5044141;28;20114;-71
2022/04/05 03:13:21;;;;;;;;;;;2.90;54.50;;;;;;5066818;28;20075;-71
2022/04/05 03:15:47;;;;;;;10.02;5.13;;;2.80;53.80;;;;;;5072898;28;19916;-71
2022/04/05 03:18:13;;;;;;;13.63;4.80;;;2.80;54.20;;;;;;5055562;28;20089;-71
2022/04/05 03:20:40;;;;;;;9.15;4.60;;;2.80;54.50;;;;;;5088441;28;20044;-71
2022/04/05 03:23:07;;;;;;;8.10;4.43;;;2.70;54.80;;;;;;5072038;28;20033;-71
2022/04/05 03:25:33;;;;;;;11.02;4.60;;;2.70;55.00;;;;;;5071489;28;20036;-72
2022/04/05 03:28:20;;;;;;;8.68;4.47;;;2.70;55.00;;;;;;5072073;28;20127;-71
2022/04/05 03:30:47;;;;;;;10.82;4.50;;;2.60;54.70;;;;;;5071551;28;20036;-71
2022/04/05 03:33:14;;;;;;;11.27;5.13;;;2.60;55.00;;;;;;5071933;28;20092;-71
2022/04/05 03:35:41;;;;;;;10.32;4.85;;;2.60;55.10;;;;;;5071292;28;20036;-71
2022/04/05 03:38:08;;;;;;;10.80;5.13;;;2.50;55.20;;;;;;5073018;28;20039;-71
2022/04/05 03:40:34;;;;;;;9.77;4.45;;;2.60;55.30;;;;;;5071363;28;20115;-71
2022/04/05 03:43:00;;;;;;;7.68;3.92;;;2.60;55.50;;;;;;5071957;28;20071;-72
2022/04/05 03:45:26;;;;;;;10.98;4.05;;;2.60;55.40;;;;;;5072528;28;20060;-71
2022/04/05 03:47:52;;;;;;;10.70;4.25;;;2.60;55.40;;;;;;5071615;28;20502;-71
2022/04/05 03:50:18;;;;;;;10.98;3.88;;;2.60;55.40;;;;;;5071061;28;20036;-71
2022/04/05 03:52:45;;;;;;;7.22;3.78;;;2.60;55.50;;;;;;5072959;28;20067;-71
2022/04/05 03:55:11;;;;;;;8.20;3.78;;;2.50;55.20;;;;;;5071097;28;20404;-71
2022/04/05 03:57:38;;;;;;;9.05;3.70;;;2.50;55.80;;;;;;5071699;28;20444;-71
2022/04/05 04:00:04;;;;;;;;;;;2.50;55.80;;;;;;5073026;28;20033;-71
2022/04/05 04:02:34;;;;;;;9.68;4.18;;;2.40;55.00;;;;;;5071352;28;19916;-71
2022/04/05 04:05:00;;;;;;;8.88;3.88;;;2.50;55.40;;;;;;5072573;28;20032;-71
2022/04/05 04:07:27;;;;;;;8.93;3.55;;;2.40;55.50;;;;;;5072600;28;20064;-71
2022/04/05 04:09:53;;;;;;;7.30;3.65;;;2.40;55.50;;;;;;5071394;28;20067;-71
2022/04/05 04:12:19;;;;;;;10.50;5.60;;;2.40;55.60;;;;;;5070882;28;20105;-71
2022/04/05 04:14:45;;;;;;;9.02;4.35;;;2.40;55.80;;;;;;5071248;28;20051;-72
2022/04/05 04:17:11;;;;;;;8.45;4.15;;;2.40;56.10;;;;;;5070941;28;20045;-72
2022/04/05 04:19:37;;;;;;;12.07;5.00;;;2.40;56.10;;;;;;5071255;28;20112;-71
2022/04/05 04:22:04;;;;;;;18.27;4.80;;;2.40;56.00;;;;;;5071016;28;20147;-71
2022/04/05 04:24:30;;;;;;;12.93;4.55;;;2.30;56.20;;;;;;5072491;28;20086;-71
2022/04/05 04:26:56;;;;;;;9.95;4.32;;;2.30;56.50;;;;;;5071983;28;20071;-71
2022/04/05 04:29:22;;;;;;;;;;;2.20;56.50;;;;;;5072976;28;20028;-71
2022/04/05 04:31:48;;;;;;;12.98;5.20;;;2.20;55.90;;;;;;5086294;28;19947;-72
2022/04/05 04:34:15;;;;;;;14.07;5.28;;;2.20;56.10;;;;;;5051154;28;20037;-72
2022/04/05 04:36:41;;;;;;;20.55;9.95;;;2.30;56.30;;;;;;5034008;28;20069;-71
2022/04/05 04:39:08;;;;;;;21.48;10.23;;;2.20;56.20;;;;;;5052353;28;20043;-71
2022/04/05 04:41:35;;;;;;;26.17;10.95;;;2.30;56.30;;;;;;5051974;28;20064;-72
2022/04/05 04:44:01;;;;;;;20.27;9.90;;;2.30;56.40;;;;;;5037345;28;20048;-71
2022/04/05 04:46:27;;;;;;;17.40;8.90;;;2.40;56.30;;;;;;5071911;28;20040;-71
2022/04/05 04:48:53;;;;;;;15.20;7.15;;;2.40;56.30;;;;;;5071205;28;20505;-71
2022/04/05 04:51:19;;;;;;;16.25;6.65;;;2.40;56.30;;;;;;5070560;28;20045;-71
2022/04/05 04:53:45;;;;;;;13.55;6.07;;;2.30;56.40;;;;;;5071138;28;20078;-71
2022/04/05 04:56:12;;;;;;;15.38;5.85;;;2.30;56.40;;;;;;5053823;28;20041;-71
2022/04/05 04:58:39;;;;;;;12.32;5.32;;;2.40;56.40;;;;;;5070898;28;20041;-71
2022/04/05 05:01:05;;;;;;;19.85;6.10;;;2.40;56.30;;;;;;5053685;28;20036;-71
2022/04/05 05:03:32;;;;;;;11.75;5.22;;;2.40;56.20;;;;;;5071007;28;20103;-72
2022/04/05 05:05:58;;;;;;;11.27;5.13;;;2.40;56.40;;;;;;5057378;28;20029;-72
2022/04/05 05:08:25;;;;;;;11.20;5.00;;;2.40;56.40;;;;;;5075930;28;20039;-72
2022/04/05 05:10:51;;;;;;;10.82;5.30;;;2.40;56.00;;;;;;5074192;28;20033;-71
2022/04/05 05:13:17;;;;;;;12.13;6.20;;;2.50;56.60;;;;;;5074542;28;20036;-71
2022/04/05 05:15:43;;;;;;;;;;;2.50;56.40;;;;;;5019147;28;20064;-71
2022/04/05 05:18:10;;;;;;;11.73;6.03;;;2.50;55.90;;;;;;5068718;28;20003;-71
2022/04/05 05:20:36;;;;;;;13.95;6.80;;;2.60;56.00;;;;;;5037369;28;20032;-72
2022/04/05 05:23:02;;;;;;;11.63;6.55;;;2.60;56.00;;;;;;5073970;28;20044;-72
2022/04/05 05:25:28;;;;;;;;;;;2.60;56.10;;;;;;5074436;28;20148;-72
2022/04/05 05:27:55;;;;;;;16.67;8.75;;;2.70;55.80;;;;;;5075535;28;19999;-71
2022/04/05 05:30:22;;;;;;;;;;;2.70;55.90;;;;;;5074229;28;20029;-72
2022/04/05 05:32:50;;;;;;;15.45;7.88;;;2.70;55.10;;;;;;5074284;28;20376;-72
2022/04/05 05:35:20;;;;;;;14.40;6.88;;;2.80;55.70;;;;;;5074825;28;20044;-71
2022/04/05 05:37:47;;;;;;;14.52;8.32;;;2.80;56.10;;;;;;5074284;28;20032;-71
2022/04/05 05:40:15;;;;;;;16.13;7.65;;;2.90;56.10;;;;;;5073492;28;20033;-71
2022/04/05 05:43:02;;;;;;;18.27;8.77;;;3.00;56.10;;;;;;5074214;28;20417;-71
2022/04/05 05:45:48;;;;;;;17.50;8.63;;;3.00;56.20;;;;;;5073686;28;20064;-71
2022/04/05 05:48:14;;;;;;;40.63;15.00;;;3.10;56.20;;;;;;5074023;28;20122;-71
2022/04/05 05:50:40;;;;;;;;;;;3.20;56.00;;;;;;5075207;28;20054;-71
2022/04/05 05:53:07;;;;;;;34.33;15.48;;;3.20;55.60;;;;;;5073917;28;19921;-71
2022/04/05 05:55:35;;;;;;;38.50;15.90;;;3.20;55.80;;;;;;5073279;28;20486;-71
2022/04/05 05:58:03;;;;;;;47.70;21.15;;;3.30;56.60;;;;;;5057107;28;20044;-71
2022/04/05 06:00:30;;;;;;;51.53;21.60;;;3.40;56.90;;;;;;5073338;28;20037;-71
2022/04/05 06:03:01;;;;;;;38.13;20.88;;;3.50;56.90;;;;;;5073819;28;20037;-71
2022/04/05 06:05:29;;;;;;;42.17;21.08;;;3.60;56.60;;;;;;5073365;28;20049;-71
2022/04/05 06:07:55;;;;;;;37.25;17.05;;;3.70;56.70;;;;;;5075279;28;20063;-72
2022/04/05 06:10:22;;;;;;;27.85;14.15;;;3.80;56.80;;;;;;5072939;28;20039;-71
2022/04/05 06:12:49;;;;;;;;;;;3.90;57.00;;;;;;5074242;28;20131;-71
2022/04/05 06:15:18;;;;;;;24.63;13.75;;;4.00;56.10;;;;;;5072652;28;19920;-72
2022/04/05 06:17:47;;;;;;;20.50;10.30;;;4.10;56.10;;;;;;5073566;28;20101;-71
2022/04/05 06:20:16;;;;;;;18.27;9.15;;;4.20;56.30;;;;;;5056134;28;20043;-71
2022/04/05 06:23:03;;;;;;;16.35;9.57;;;4.30;56.30;;;;;;5073538;28;20447;-71
2022/04/05 06:25:47;;;;;;;29.30;12.80;;;4.50;57.00;;;;;;5072907;28;20040;-71
2022/04/05 06:28:16;;;;;;;19.75;13.18;;;4.70;56.90;;;;;;5056424;28;20133;-71
2022/04/05 06:30:42;;;;;;;21.33;12.07;;;4.80;56.70;;;;;;5058059;28;20466;-71
2022/04/05 06:33:10;;;;;;;16.58;9.05;;;5.00;56.50;;;;;;5053153;28;20036;-71
2022/04/05 06:35:59;;;;;;;17.90;8.82;;;5.10;56.80;;;;;;5052277;28;20094;-72
2022/04/05 06:38:27;;;;;;;12.52;5.47;;;5.20;56.50;;;;;;5054404;28;20037;-71
2022/04/05 06:40:54;;;;;;;10.48;5.38;;;5.40;56.10;;;;;;5052515;28;20478;-71
2022/04/05 06:43:24;;;;;;;25.60;12.80;;;5.60;55.80;;;;;;5052964;28;20030;-72
2022/04/05 06:45:51;;;;;;;12.75;6.75;;;5.80;55.70;;;;;;5052391;28;20044;-71
2022/04/05 06:48:18;;;;;;;25.00;5.05;;;5.90;55.70;;;;;;5036265;28;20040;-71
2022/04/05 06:50:46;;;;;;;11.52;5.93;;;6.00;55.50;;;;;;5035761;28;20037;-72
2022/04/05 06:53:13;;;;;;;14.60;5.75;;;6.10;54.90;;;;;;5036427;28;20029;-72
2022/04/05 06:55:40;;;;;;;10.45;5.38;;;6.30;54.90;;;;;;5052129;28;20118;-71
2022/04/05 06:58:08;;;;;;;15.43;7.95;;;6.40;54.60;;;;;;5052548;28;20039;-72
2022/04/05 07:00:35;;;;;;;10.77;5.75;;;6.50;54.40;;;;;;5052181;28;20025;-71
2022/04/05 07:03:02;;;;;;;14.43;6.10;;;6.60;54.80;;;;;;5052564;28;20490;-71
2022/04/05 07:05:29;;;;;;;12.23;6.07;;;6.80;54.90;;;;;;5053313;28;20040;-72
2022/04/05 07:07:56;;;;;;;;;;;6.90;54.80;;;;;;5053209;28;20029;-71
2022/04/05 07:10:23;;;;;;;9.75;5.05;;;7.00;54.20;;;;;;5052306;28;19916;-72
2022/04/05 07:12:50;;;;;;;15.95;8.25;;;7.20;54.00;;;;;;5054015;28;20041;-72
2022/04/05 07:15:16;;;;;;;11.48;5.38;;;7.40;54.10;;;;;;5053360;28;20409;-71
2022/04/05 07:17:43;;;;;;;9.93;5.28;;;7.50;54.20;;;;;;5053919;28;20040;-72
2022/04/05 07:20:10;;;;;;;8.38;4.63;;;7.70;53.90;;;;;;5051723;28;20464;-72
2022/04/05 07:22:44;;;;;;;15.00;8.55;;;7.90;54.10;;;;;;5035641;28;20551;-72
2022/04/05 07:25:10;;;;;;;10.70;4.82;;;8.20;54.20;;;;;;5051753;28;20056;-72
2022/04/05 07:27:37;;;;;;;8.93;4.90;;;8.60;53.30;;;;;;5034626;28;20053;-72
2022/04/05 07:30:03;;;;;;;;;;;9.30;53.10;;;;;;5053628;28;20108;-72
2022/04/05 07:32:55;;;;;;;9.40;5.10;;;9.90;53.80;;;;;;5051922;28;19916;-72
2022/04/05 07:35:21;;;;;;;7.88;3.95;;;10.70;52.70;;;;;;5051408;28;20029;-72
2022/04/05 07:37:48;;;;;;;;;;;11.40;51.60;;;;;;5052607;28;20040;-73
2022/04/05 07:40:15;;;;;;;8.95;5.15;;;12.00;51.80;;;;;;5051466;28;19923;-72
2022/04/05 07:42:43;;;;;;;9.82;4.93;;;12.40;48.80;;;;;;5053466;28;20079;-73
2022/04/05 07:45:12;;;;;;;10.65;5.18;;;13.00;47.60;;;;;;5051356;28;20079;-72
2022/04/05 07:47:39;;;;;;;8.30;3.85;;;13.50;43.70;;;;;;5051824;28;20041;-73
2022/04/05 07:50:07;;;;;;;9.10;5.20;;;13.80;40.70;;;;;;5051513;28;20032;-72
2022/04/05 07:52:34;;;;;;;9.25;4.15;;;14.10;40.90;;;;;;5051864;28;20450;-73
2022/04/05 07:55:00;;;;;;;;;;;14.60;39.50;;;;;;5052175;28;20327;-73
2022/04/05 07:57:26;;;;;;;8.95;4.45;;;15.00;40.80;;;;;;5052620;28;19917;-73
2022/04/05 07:59:52;;;;;;;;;;;15.40;37.80;;;;;;5035580;28;20525;-72
2022/04/05 08:02:19;;;;;;;11.40;7.45;;;15.80;39.10;;;;;;5034482;28;19921;-72
2022/04/05 08:04:45;;;;;;;10.38;6.05;;;16.30;36.80;;;;;;5051504;28;20037;-72
2022/04/05 08:07:11;;;;;;;;;;;16.60;35.50;;;;;;5053015;28;20033;-72
2022/04/05 08:09:37;;;;;;;10.45;5.25;;;16.90;35.70;;;;;;5051397;28;20483;-72
2022/04/05 08:12:04;;;;;;;9.60;5.97;;;17.10;33.30;;;;;;5052441;28;20120;-72
2022/04/05 08:14:31;;;;;;;9.00;5.20;;;17.40;32.30;;;;;;5051396;28;20041;-72
2022/04/05 08:16:58;;;;;;;11.60;5.75;;;17.60;31.00;;;;;;5034284;28;20387;-73
2022/04/05 08:19:25;;;;;;;10.65;5.10;;;17.80;30.90;;;;;;5034652;28;20128;-73
2022/04/05 08:21:51;;;;;;;9.20;5.22;;;18.30;30.40;;;;;;5052199;28;20040;-73
2022/04/05 08:24:19;;;;;;;10.27;5.53;;;18.30;29.20;;;;;;5052466;28;20033;-73
2022/04/05 08:26:46;;;;;;;10.45;5.13;;;18.60;29.10;;;;;;5052156;28;20037;-73
2022/04/05 08:29:13;;;;;;;8.30;4.28;;;18.90;28.70;;;;;;5051317;28;20045;-72
2022/04/05 08:31:39;;;;;;;9.85;5.80;;;19.40;28.50;;;;;;5050662;28;20033;-73
2022/04/05 08:34:06;;;;;;;8.68;5.55;;;19.80;28.40;;;;;;5052411;28;20041;-72
2022/04/05 08:36:32;;;;;;;9.55;5.30;;;20.20;27.40;;;;;;5050789;28;20481;-73
2022/04/05 08:38:58;;;;;;;12.02;4.75;;;20.30;25.90;;;;;;5051688;28;20128;-73
2022/04/05 08:41:26;;;;;;;;;;;20.40;26.20;;;;;;5055397;28;20478;-73
2022/04/05 08:43:53;;;;;;;8.98;4.70;;;20.70;26.90;;;;;;5055538;28;19964;-73
2022/04/05 08:46:21;;;;;;;9.65;5.53;;;21.30;26.10;;;;;;5055959;28;20506;-73
2022/04/05 08:48:50;;;;;;;10.15;5.38;;;21.50;25.30;;;;;;5055224;28;20481;-74
2022/04/05 08:51:16;;;;;;;13.68;5.40;;;21.80;24.20;;;;;;5054591;28;20040;-73
2022/04/05 08:53:43;;;;;;;;;;;21.80;23.90;;;;;;5055529;28;20039;-73
2022/04/05 08:56:09;;;;;;;10.25;5.00;;;22.00;24.70;;;;;;5055728;28;19917;-73
2022/04/05 08:58:36;;;;;;;10.98;6.38;;;22.40;23.40;;;;;;5056123;28;20100;-73
2022/04/05 09:01:02;;;;;;;8.73;5.20;;;22.40;23.40;;;;;;5054289;28;20037;-73
2022/04/05 09:03:32;;;;;;;10.35;5.47;;;22.80;23.00;;;;;;5054903;28;20040;-73
2022/04/05 09:09:30;;;;;;;11.13;5.85;;;24.00;23.00;;;;;;5055025;28;20107;-74
2022/04/05 09:11:57;;;;;;;9.38;4.82;;;24.50;21.80;;;;;;5037531;28;20033;-73
2022/04/05 09:14:42;;;;;;;10.85;5.32;;;25.00;20.60;;;;;;5055829;28;20437;-73
2022/04/05 09:17:12;;;;;;;8.70;5.30;;;24.60;20.70;;;;;;5054235;28;20067;-72
2022/04/05 09:19:42;;;;;;;9.57;6.10;;;25.10;21.00;;;;;;5054439;28;20029;-73
2022/04/05 09:22:09;;;;;;;9.48;5.30;;;25.80;20.30;;;;;;5037826;28;20461;-73
2022/04/05 09:24:37;;;;;;;10.57;6.50;;;26.00;19.10;;;;;;5054381;28;20037;-73
2022/04/05 09:27:06;;;;;;;7.82;4.78;;;26.10;19.40;;;;;;5037057;28;20033;-73
2022/04/05 09:29:52;;;;;;;10.90;5.70;;;26.70;18.50;;;;;;5054520;28;20302;-73
2022/04/05 09:32:40;;;;;;;10.20;5.97;;;26.80;18.40;;;;;;5053817;28;20474;-73
2022/04/05 09:35:07;;;;;;;9.02;5.45;;;26.70;19.00;;;;;;5054037;28;20116;-74
2022/04/05 09:37:38;;;;;;;9.82;5.80;;;26.80;18.20;;;;;;5055625;28;20120;-73
2022/04/05 09:40:32;;;;;;;8.50;5.43;;;27.20;17.70;;;;;;5055242;28;20060;-73
2022/04/05 09:43:17;;;;;;;11.85;5.60;;;27.60;17.50;;;;;;5054355;28;20470;-73
2022/04/05 09:46:03;;;;;;;9.73;5.57;;;27.70;17.20;;;;;;5054785;28;20069;-73
2022/04/05 09:48:35;;;;;;;9.73;5.73;;;28.20;17.70;;;;;;5053993;28;20040;-74
2022/04/05 09:51:22;;;;;;;8.18;5.55;;;29.10;17.10;;;;;;5052987;28;20458;-73
2022/04/05 09:53:51;;;;;;;9.07;5.55;;;29.40;16.60;;;;;;5053823;28;20513;-73
2022/04/05 09:59:22;;;;;;;8.65;5.03;;;30.40;16.40;;;;;;5053992;28;20067;-73
2022/04/05 10:01:51;;;;;;;9.52;6.05;;;31.00;14.90;;;;;;5053270;28;20072;-74
2022/04/05 10:04:19;;;;;;;10.73;5.80;;;31.30;15.30;;;;;;5054940;28;20052;-73
2022/04/05 10:06:48;;;;;;;10.40;5.28;;;31.80;14.30;;;;;;5053219;28;20065;-73
2022/04/05 10:09:17;;;;;;;9.57;5.40;;;31.80;14.40;;;;;;5053710;28;20431;-74
2022/04/05 10:11:45;;;;;;;8.40;5.03;;;31.80;14.20;;;;;;5053163;28;20029;-73
2022/04/05 10:14:20;;;;;;;7.85;4.72;;;32.30;14.20;;;;;;5053557;28;20033;-73
2022/04/05 10:16:48;;;;;;;8.40;4.72;;;32.10;13.10;;;;;;5053098;28;20045;-73
2022/04/05 10:19:16;;;;;;;7.70;4.97;;;31.90;13.90;;;;;;5053528;28;20057;-74
2022/04/05 10:21:43;;;;;;;8.85;5.88;;;32.50;13.70;;;;;;5036212;28;20047;-73
2022/04/05 10:24:12;;;;;;;8.90;4.90;;;33.40;13.40;;;;;;5053407;28;20056;-73
2022/04/05 10:26:42;;;;;;;8.80;4.90;;;34.20;13.00;;;;;;5052820;28;20041;-73
2022/04/05 10:32:53;;;;;;;9.60;5.78;;;34.30;12.60;;;;;;5054162;28;20504;-73
2022/04/05 10:35:24;;;;;;;7.88;4.75;;;34.50;12.60;;;;;;5053757;28;20541;-74
2022/04/05 10:40:36;;;;;;;7.13;4.80;;;34.20;11.80;;;;;;5052782;28;20044;-74
2022/04/05 10:43:34;;;;;;;7.32;3.83;;;34.50;11.80;;;;;;5052970;28;20082;-73
2022/04/05 10:46:00;;;;;;;8.75;5.80;;;35.50;11.50;;;;;;5052484;28;20037;-73
2022/04/05 10:48:28;;;;;;;9.05;5.22;;;35.30;11.80;;;;;;5054403;28;20033;-73
2022/04/05 10:51:30;;;;;;;7.20;4.80;;;34.90;11.60;;;;;;5053510;28;20418;-73
2022/04/05 10:54:18;;;;;;;7.07;4.70;;;35.00;11.70;;;;;;5052968;28;20045;-74
2022/04/05 10:57:27;;;;;;;7.85;4.95;;;34.70;10.90;;;;;;5052448;28;20041;-73
2022/04/05 11:00:21;;;;;;;8.15;5.22;;;34.30;12.10;;;;;;5054170;28;20057;-73
2022/04/05 11:03:06;;;;;;;7.60;5.00;;;35.40;11.70;;;;;;5053324;28;20428;-73
2022/04/05 11:06:02;;;;;;;6.78;4.45;;;36.20;11.20;;;;;;5053397;28;20039;-73
2022/04/05 11:08:28;;;;;;;6.38;4.10;;;36.10;10.70;;;;;;5053762;28;20442;-73
2022/04/05 11:11:00;;;;;;;8.18;5.50;;;36.30;10.50;;;;;;5051917;28;20029;-73
2022/04/05 11:13:46;;;;;;;8.32;4.15;;;36.10;11.40;;;;;;5052506;28;20061;-73
2022/04/05 11:16:13;;;;;;;;;;;36.90;10.30;;;;;;5052779;28;20069;-73
2022/04/05 11:18:41;;;;;;;12.40;5.50;;;37.00;10.70;;;;;;5052239;28;19966;-73
2022/04/05 11:21:09;;;;;;;6.75;4.20;;;37.30;10.90;;;;;;5051862;28;20032;-73
2022/04/05 11:23:54;;;;;;;5.45;3.42;;;38.20;10.70;;;;;;5053387;28;20033;-73
2022/04/05 11:26:39;;;;;;;7.00;4.30;;;38.20;10.30;;;;;;5052967;28;20548;-74
2022/04/05 11:29:24;;;;;;;6.95;4.20;;;38.30;10.20;;;;;;5053402;28;20414;-73
2022/04/05 11:32:09;;;;;;;8.07;5.50;;;40.00;10.00;;;;;;5051625;28;20067;-73
2022/04/05 11:34:54;;;;;;;6.57;3.90;;;39.80;9.10;;;;;;5053290;28;20035;-74
2022/04/05 11:40:18;;;;;;;7.10;4.35;;;39.10;9.50;;;;;;5052609;28;20040;-73
2022/04/05 11:42:45;;;;;;;8.95;4.88;;;38.70;9.80;;;;;;5052023;28;20037;-73
2022/04/05 11:45:12;;;;;;;9.68;5.68;;;39.70;10.20;;;;;;5051416;28;20041;-73
2022/04/05 11:47:38;;;;;;;7.20;4.53;;;40.20;9.00;;;;;;5051903;28;20148;-73
2022/04/05 11:50:24;;;;;;;7.53;4.70;;;40.90;8.90;;;;;;5051562;28;20037;-74
2022/04/05 11:52:50;;;;;;;8.68;4.30;;;41.40;9.50;;;;;;5051900;28;20194;-74
2022/04/05 11:58:42;;;;;;;7.30;4.10;;;40.20;9.10;;;;;;5052848;28;20520;-74
2022/04/05 12:01:11;;;;;;;8.15;4.32;;;40.00;9.70;;;;;;5034460;28;20029;-73
2022/04/05 12:03:58;;;;;;;7.22;3.17;;;40.70;8.90;;;;;;5051556;28;20041;-74
2022/04/05 12:06:44;;;;;;;7.38;3.90;;;40.50;8.70;;;;;;5052370;28;20032;-73
2022/04/05 12:09:18;;;;;;;5.65;3.60;;;40.30;9.20;;;;;;5051503;28;20029;-74
2022/04/05 12:11:50;;;;;;;5.78;3.70;;;40.50;8.70;;;;;;5052438;28;20462;-74
2022/04/05 12:14:39;;;;;;;8.15;3.85;;;40.00;9.40;;;;;;5052463;28;20037;-74
2022/04/05 12:17:06;;;;;;;14.43;8.75;;;40.30;9.00;;;;;;5052304;28;20366;-73
2022/04/05 12:19:53;;;;;;;7.28;4.07;;;41.00;9.20;;;;;;5051412;28;20478;-74
2022/04/05 12:22:20;;;;;;;6.35;3.78;;;41.10;8.90;;;;;;5052284;28;20032;-74
2022/04/05 12:24:51;;;;;;;5.25;3.40;;;41.50;8.30;;;;;;5052572;28;20036;-73
2022/04/05 12:27:37;;;;;;;6.57;3.60;;;41.10;8.50;;;;;;5050742;28;20045;-73
2022/04/05 12:30:04;;;;;;;6.18;3.97;;;40.80;8.30;;;;;;5051090;28;20033;-74
2022/04/05 12:32:49;;;;;;;7.10;4.25;;;41.00;9.00;;;;;;5052585;28;20028;-73
2022/04/05 12:35:15;;;;;;;6.82;3.42;;;41.20;9.20;;;;;;5050660;28;20104;-73
2022/04/05 12:37:44;;;;;;;6.70;3.67;;;41.90;7.60;;;;;;5051176;28;20086;-73
2022/04/05 12:40:39;;;;;;;6.97;3.42;;;41.20;8.50;;;;;;5050821;28;20105;-73
2022/04/05 12:43:20;;;;;;;5.40;3.10;;;40.10;9.20;;;;;;5051176;28;20045;-74
2022/04/05 12:45:48;;;;;;;8.93;4.30;;;40.10;9.00;;;;;;5033988;28;20025;-74
2022/04/05 12:48:33;;;;;;;5.90;3.55;;;40.10;9.10;;;;;;5051222;28;20025;-74
2022/04/05 12:51:00;;;;;;;7.13;4.00;;;41.10;8.90;;;;;;5033933;28;20041;-73
2022/04/05 12:53:45;;;;;;;6.82;4.10;;;41.40;8.30;;;;;;5051003;28;20516;-74
2022/04/05 12:56:14;;;;;;;6.53;3.50;;;41.60;8.30;;;;;;5051844;28;20048;-73
2022/04/05 12:59:20;;;;;;;8.30;4.63;;;41.50;8.90;;;;;;5052093;28;20037;-73
2022/04/05 13:01:55;;;;;;;7.18;4.30;;;41.30;8.90;;;;;;5050444;28;20041;-73
2022/04/05 13:04:40;;;;;;;6.90;3.43;;;41.60;8.50;;;;;;5050988;28;20518;-74
2022/04/05 13:07:07;;;;;;;5.35;3.10;;;41.50;8.00;;;;;;5050580;28;21006;-73
2022/04/05 13:09:37;;;;;;;5.40;2.85;;;41.10;7.90;;;;;;5050912;28;20032;-73
2022/04/05 13:12:23;;;;;;;5.13;2.80;;;40.70;8.50;;;;;;5050362;28;20041;-74
2022/04/05 13:14:49;;;;;;;8.40;4.03;;;39.80;8.90;;;;;;5052074;28;20048;-74
2022/04/05 13:17:16;;;;;;;5.72;3.35;;;40.30;8.60;;;;;;5050457;28;20029;-73
2022/04/05 13:20:11;;;;;;;7.88;4.55;;;41.40;8.20;;;;;;5050773;28;20061;-74
2022/04/05 13:22:38;;;;;;;5.97;3.03;;;41.30;8.50;;;;;;5052347;28;20389;-73
2022/04/05 13:25:05;;;;;;;7.05;3.20;;;41.00;8.10;;;;;;5051337;28;20037;-73
2022/04/05 13:27:32;;;;;;;5.53;2.92;;;41.70;8.50;;;;;;5055378;28;20057;-73
2022/04/05 13:30:09;;;;;;;5.80;2.90;;;41.10;8.40;;;;;;5054323;28;20063;-74